Time;durP1;ratioP1;P1;durP2;ratioP2;P2;SDS_P1;SDS_P2;PMS_P1;PMS_P2;Temp;Humidity;BMP_temperature;BMP_pressure;BME280_temperature;BME280_humidity;BME280_pressure;Samples;Min_cycle;Max_cycle;Signal;HPM_P1;HPM_P2
2023/07/28 00:02:49;;;;;;;4.60;4.30;;;19.40;99.90;;;;;;10229834;28;20288;-80
2023/07/28 00:07:52;;;;;;;5.10;4.60;;;19.40;99.90;;;;;;10228548;28;20595;-79
2023/07/28 00:12:54;;;;;;;4.97;4.57;;;19.40;99.90;;;;;;10232518;28;20209;-79
2023/07/28 00:17:59;;;;;;;4.10;3.80;;;19.40;99.90;;;;;;10230075;28;20232;-79
2023/07/28 00:23:01;;;;;;;4.57;4.37;;;19.40;99.90;;;;;;10229017;28;20232;-81
2023/07/28 00:28:03;;;;;;;5.30;4.90;;;19.40;99.90;;;;;;10230588;28;20264;-79
2023/07/28 00:33:07;;;;;;;4.93;4.63;;;19.30;99.90;;;;;;10230407;28;20212;-81
2023/07/28 00:38:10;;;;;;;4.97;4.67;;;19.30;99.90;;;;;;10230198;28;20314;-81
2023/07/28 00:43:12;;;;;;;4.30;4.03;;;19.30;99.90;;;;;;10229878;28;20873;-81
2023/07/28 00:48:16;;;;;;;4.37;4.10;;;19.30;99.90;;;;;;10232111;28;20229;-80
2023/07/28 00:53:18;;;;;;;4.30;4.10;;;19.30;99.90;;;;;;10227553;28;20291;-80
2023/07/28 00:58:21;;;;;;;4.30;4.00;;;19.30;99.90;;;;;;10229826;28;20228;-80
2023/07/28 01:03:25;;;;;;;4.30;4.10;;;19.20;99.90;;;;;;10222344;28;20209;-80
2023/07/28 01:08:31;;;;;;;4.27;3.97;;;19.10;99.90;;;;;;10237460;28;20236;-80
2023/07/28 01:13:34;;;;;;;4.90;4.50;;;19.10;99.90;;;;;;10231978;28;20205;-80
2023/07/28 01:18:38;;;;;;;5.70;4.10;;;19.10;99.90;;;;;;10236072;28;20236;-80
2023/07/28 01:23:45;;;;;;;4.13;3.90;;;19.10;99.90;;;;;;10235121;28;20220;-80
2023/07/28 01:28:49;;;;;;;4.30;4.00;;;19.10;99.90;;;;;;10252458;28;20232;-80
2023/07/28 01:33:51;;;;;;;3.70;3.50;;;19.10;99.90;;;;;;10235422;28;20216;-80
2023/07/28 01:38:53;;;;;;;4.13;3.70;;;19.10;99.90;;;;;;10237655;28;21110;-80
2023/07/28 01:43:57;;;;;;;4.27;4.07;;;19.10;99.90;;;;;;10232224;28;20570;-79
2023/07/28 01:48:59;;;;;;;4.07;3.77;;;19.10;99.90;;;;;;10238820;28;20898;-80
2023/07/28 01:54:01;;;;;;;4.70;4.30;;;19.10;99.90;;;;;;10236367;28;20209;-80
2023/07/28 01:59:06;;;;;;;4.43;4.13;;;19.10;99.90;;;;;;10225255;28;20228;-80
2023/07/28 02:04:08;;;;;;;4.87;4.47;;;19.10;99.90;;;;;;10242680;28;20216;-80
2023/07/28 02:09:10;;;;;;;5.03;4.50;;;19.10;99.90;;;;;;10235872;28;20232;-80
2023/07/28 02:14:14;;;;;;;5.23;4.93;;;19.10;99.90;;;;;;10234557;28;20294;-80
2023/07/28 02:19:16;;;;;;;4.40;4.20;;;19.10;99.90;;;;;;10235520;28;20236;-80
2023/07/28 02:24:18;;;;;;;4.53;4.23;;;19.10;99.90;;;;;;10233864;28;20213;-80
2023/07/28 02:29:21;;;;;;;4.37;4.17;;;19.10;99.90;;;;;;10240496;28;20236;-81
2023/07/28 02:34:24;;;;;;;4.87;4.57;;;19.10;99.90;;;;;;10232861;28;20362;-80
2023/07/28 02:39:26;;;;;;;4.07;3.87;;;19.20;99.90;;;;;;10234717;28;20314;-80
2023/07/28 02:44:29;;;;;;;4.60;4.23;;;19.20;99.90;;;;;;10248613;28;20219;-81
2023/07/28 02:49:31;;;;;;;4.37;4.10;;;19.20;99.90;;;;;;10232270;28;20235;-80
2023/07/28 02:54:34;;;;;;;3.90;3.70;;;19.20;99.90;;;;;;10235789;28;20211;-80
2023/07/28 02:59:37;;;;;;;4.63;4.30;;;19.20;99.90;;;;;;10232993;28;20607;-80
2023/07/28 03:04:39;;;;;;;4.93;4.63;;;19.20;99.90;;;;;;10231191;28;20291;-80
2023/07/28 03:10:05;;;;;;;4.83;4.43;;;19.20;99.90;;;;;;10225626;28;20233;-80
2023/07/28 03:15:11;;;;;;;4.60;4.30;;;19.20;99.90;;;;;;10210499;28;20685;-80
2023/07/28 03:20:14;;;;;;;4.33;4.00;;;19.20;99.90;;;;;;10252702;28;20233;-80
2023/07/28 03:25:16;;;;;;;5.10;4.70;;;19.20;99.90;;;;;;10233354;28;20213;-80
2023/07/28 03:30:19;;;;;;;4.30;4.00;;;19.30;99.90;;;;;;10229321;28;20232;-80
2023/07/28 03:35:21;;;;;;;4.70;4.40;;;19.30;99.90;;;;;;10228760;28;20257;-80
2023/07/28 03:40:33;;;;;;;4.97;4.67;;;19.30;99.90;;;;;;10230058;28;20225;-80
2023/07/28 03:45:37;;;;;;;4.60;4.20;;;19.30;99.90;;;;;;10238254;28;20213;-80
2023/07/28 03:50:39;;;;;;;4.07;3.67;;;19.30;99.90;;;;;;10226859;28;20229;-80
2023/07/28 03:55:41;;;;;;;4.53;4.23;;;19.30;99.90;;;;;;10225789;28;20237;-80
2023/07/28 04:00:45;;;;;;;4.57;4.27;;;19.30;99.90;;;;;;10249382;28;20630;-81
2023/07/28 04:05:47;;;;;;;5.00;4.60;;;19.30;99.90;;;;;;10245198;28;20203;-82
2023/07/28 04:10:49;;;;;;;4.27;3.97;;;19.30;99.90;;;;;;10270364;28;20224;-79
2023/07/28 04:15:53;;;;;;;4.60;4.20;;;19.30;99.90;;;;;;10267206;28;20201;-80
2023/07/28 04:20:55;;;;;;;4.23;4.00;;;19.30;99.90;;;;;;10284027;28;20229;-79
2023/07/28 04:25:57;;;;;;;4.67;4.27;;;19.30;99.90;;;;;;10270149;28;20202;-81
2023/07/28 04:31:02;;;;;;;4.73;4.37;;;19.30;99.90;;;;;;10230797;28;20229;-80
2023/07/28 04:36:24;;;;;;;3.90;3.60;;;19.30;99.90;;;;;;10230352;28;20224;-80
2023/07/28 04:41:26;;;;;;;5.60;4.50;;;19.30;99.90;;;;;;10238516;28;20209;-80
2023/07/28 04:46:30;;;;;;;4.53;4.13;;;19.30;99.90;;;;;;10240034;28;20316;-81
2023/07/28 04:51:33;;;;;;;5.40;4.90;;;19.40;99.90;;;;;;10232890;28;20208;-81
2023/07/28 04:56:53;;;;;;;4.63;4.10;;;19.40;99.90;;;;;;10232005;28;20229;-82
2023/07/28 05:02:02;;;;;;;3.47;3.23;;;19.40;99.90;;;;;;10247173;28;20408;-80
2023/07/28 05:07:05;;;;;;;4.30;4.00;;;19.40;99.90;;;;;;10230527;28;20569;-80
2023/07/28 05:12:08;;;;;;;4.53;4.23;;;19.30;99.90;;;;;;10228931;28;20205;-80
2023/07/28 05:17:19;;;;;;;4.40;4.10;;;19.40;99.90;;;;;;10224870;28;20319;-80
2023/07/28 05:22:41;;;;;;;4.93;4.53;;;19.30;99.90;;;;;;10217532;28;20213;-80
2023/07/28 05:27:44;;;;;;;5.40;5.00;;;19.30;99.90;;;;;;10231926;28;20248;-81
2023/07/28 05:32:48;;;;;;;6.10;5.60;;;19.30;99.90;;;;;;10229275;28;20209;-80
2023/07/28 05:38:04;;;;;;;5.97;5.57;;;19.30;99.90;;;;;;10236970;28;20608;-81
2023/07/28 05:43:06;;;;;;;4.97;4.67;;;19.20;99.90;;;;;;10235839;28;20221;-81
2023/07/28 05:48:09;;;;;;;5.40;5.00;;;19.20;99.90;;;;;;10229864;28;20236;-80
2023/07/28 05:53:11;;;;;;;6.63;5.90;;;19.20;99.90;;;;;;10227560;28;20213;-81
2023/07/28 05:58:13;;;;;;;6.27;5.87;;;19.20;99.90;;;;;;10243644;28;20225;-81
2023/07/28 06:03:17;;;;;;;7.40;6.90;;;19.10;99.90;;;;;;10241359;28;20713;-82
2023/07/28 06:08:42;;;;;;;9.17;8.27;;;19.10;99.90;;;;;;10251337;28;20244;-79
2023/07/28 06:13:45;;;;;;;8.87;8.27;;;19.20;99.90;;;;;;10234872;28;20213;-80
2023/07/28 06:18:48;;;;;;;8.63;7.93;;;19.20;99.90;;;;;;10235673;28;20730;-80
2023/07/28 06:23:55;;;;;;;9.47;8.77;;;19.20;99.90;;;;;;10235127;28;20233;-79
2023/07/28 06:28:57;;;;;;;9.60;9.00;;;19.20;99.90;;;;;;10223845;28;20225;-80
2023/07/28 06:34:01;;;;;;;10.30;9.50;;;19.20;99.90;;;;;;10223846;28;20215;-80
2023/07/28 06:39:03;;;;;;;9.67;9.07;;;19.20;99.90;;;;;;10234172;28;20716;-80
2023/07/28 06:44:05;;;;;;;9.30;8.47;;;19.10;99.90;;;;;;10234527;28;20300;-80
2023/07/28 06:49:09;;;;;;;9.03;8.43;;;19.10;99.90;;;;;;10233954;28;20292;-80
2023/07/28 06:54:12;;;;;;;9.27;8.57;;;19.20;99.90;;;;;;10233839;28;20265;-79
2023/07/28 06:59:15;;;;;;;9.90;9.20;;;19.20;99.90;;;;;;10237296;28;20229;-81
2023/07/28 07:04:20;;;;;;;10.07;9.13;;;19.40;99.90;;;;;;10233932;28;20557;-81
2023/07/28 07:09:22;;;;;;;8.37;7.87;;;19.60;99.90;;;;;;10236087;28;20767;-81
2023/07/28 07:14:24;;;;;;;8.30;7.70;;;19.70;99.90;;;;;;10235861;28;20225;-80
2023/07/28 07:19:28;;;;;;;9.33;8.43;;;19.90;99.90;;;;;;10233209;28;20307;-80
2023/07/28 07:24:30;;;;;;;7.20;6.80;;;20.00;99.90;;;;;;10236589;28;20209;-81
2023/07/28 07:29:33;;;;;;;7.53;7.13;;;20.10;99.90;;;;;;10237099;28;20272;-80
2023/07/28 07:34:38;;;;;;;6.90;6.50;;;20.20;99.90;;;;;;10235873;28;20209;-80
2023/07/28 07:39:41;;;;;;;7.03;6.60;;;20.40;99.90;;;;;;10236416;28;20240;-80
2023/07/28 07:44:43;;;;;;;6.40;5.93;;;20.60;99.90;;;;;;10237930;28;20201;-81
2023/07/28 07:49:46;;;;;;;6.77;6.37;;;20.90;99.90;;;;;;10230383;28;20244;-79
2023/07/28 07:54:48;;;;;;;6.70;5.40;;;21.30;99.90;;;;;;10224962;28;20328;-80
2023/07/28 07:59:50;;;;;;;6.23;5.73;;;21.50;99.90;;;;;;10231931;28;20424;-80
2023/07/28 08:04:54;;;;;;;6.83;5.50;;;21.60;99.90;;;;;;10233101;28;20288;-80
2023/07/28 08:09:56;;;;;;;5.60;5.10;;;21.50;99.90;;;;;;10233003;28;20272;-80
2023/07/28 08:14:58;;;;;;;6.80;6.27;;;21.60;99.90;;;;;;10232758;28;20221;-81
2023/07/28 08:20:02;;;;;;;6.73;5.70;;;21.60;99.90;;;;;;10229431;28;20233;-80
2023/07/28 08:25:05;;;;;;;5.33;4.83;;;21.60;99.90;;;;;;10231381;28;20236;-80
2023/07/28 08:30:09;;;;;;;7.33;4.97;;;21.60;99.90;;;;;;10231498;28;20663;-81
2023/07/28 08:35:12;;;;;;;5.20;4.80;;;21.50;99.90;;;;;;10223380;28;20738;-79
2023/07/28 08:40:15;;;;;;;6.17;5.10;;;21.60;99.90;;;;;;10229900;28;20226;-80
2023/07/28 08:45:19;;;;;;;8.03;5.97;;;21.80;99.90;;;;;;10230564;28;20655;-80
2023/07/28 08:50:23;;;;;;;5.40;4.93;;;21.90;99.90;;;;;;10229114;28;20233;-81
2023/07/28 08:55:25;;;;;;;5.70;5.10;;;22.10;99.90;;;;;;10231945;28;20202;-81
2023/07/28 09:00:27;;;;;;;4.80;4.50;;;22.20;99.90;;;;;;10230636;28;20257;-81
2023/07/28 09:05:34;;;;;;;5.43;4.93;;;22.40;99.90;;;;;;10230360;28;20556;-80
2023/07/28 09:10:43;;;;;;;4.83;4.43;;;22.40;99.90;;;;;;10232714;28;20241;-80
2023/07/28 09:15:45;;;;;;;4.70;4.40;;;22.50;99.90;;;;;;10232637;28;20212;-81
2023/07/28 09:20:49;;;;;;;4.77;4.07;;;22.60;99.90;;;;;;10287324;23;20244;-86
2023/07/28 09:25:59;;;;;;;5.63;5.10;;;22.50;99.90;;;;;;10275112;28;20236;-87
2023/07/28 09:31:05;;;;;;;5.53;5.13;;;22.50;99.90;;;;;;10280783;28;20256;-84
2023/07/28 09:36:10;;;;;;;6.77;6.13;;;22.40;99.90;;;;;;10274190;28;20204;-86
2023/07/28 09:41:12;;;;;;;7.03;5.83;;;22.40;99.90;;;;;;10277793;28;20230;-88
2023/07/28 09:46:18;;;;;;;7.13;5.80;;;22.50;99.90;;;;;;10285435;28;20212;-88
2023/07/28 09:51:23;;;;;;;6.13;5.30;;;22.70;99.90;;;;;;10289924;28;20559;-87
2023/07/28 09:56:29;;;;;;;7.07;5.40;;;22.90;99.90;;;;;;10287410;28;20627;-88
2023/07/28 10:01:33;;;;;;;6.00;5.50;;;23.10;99.90;;;;;;10290946;28;20221;-86
2023/07/28 10:06:37;;;;;;;5.40;4.90;;;23.10;99.90;;;;;;10300329;28;20219;-86
2023/07/28 10:11:40;;;;;;;4.70;4.33;;;23.10;99.90;;;;;;10284038;28;20280;-86
2023/07/28 10:16:44;;;;;;;4.30;4.00;;;23.30;99.90;;;;;;10289623;28;20197;-86
2023/07/28 10:21:48;;;;;;;4.00;3.70;;;23.50;99.90;;;;;;10307358;28;20672;-86
2023/07/28 10:26:58;;;;;;;4.20;3.83;;;23.60;99.90;;;;;;10290674;28;20282;-86
2023/07/28 10:32:02;;;;;;;4.57;4.27;;;23.50;99.90;;;;;;10278082;28;20225;-86
2023/07/28 10:37:07;;;;;;;4.40;4.07;;;23.40;99.90;;;;;;10282606;28;20723;-85
2023/07/28 10:42:10;;;;;;;4.30;3.90;;;23.30;99.90;;;;;;10287414;28;20205;-86
2023/07/28 10:47:13;;;;;;;4.70;3.83;;;23.30;99.90;;;;;;10292314;28;20216;-86
2023/07/28 10:52:19;;;;;;;4.23;3.93;;;23.30;99.90;;;;;;10291480;28;20223;-86
2023/07/28 10:57:22;;;;;;;3.83;3.53;;;23.30;99.90;;;;;;10312160;28;20224;-86
2023/07/28 11:02:24;;;;;;;5.10;4.70;;;23.30;99.90;;;;;;10288665;28;20198;-86
2023/07/28 11:07:28;;;;;;;4.87;3.80;;;23.20;99.90;;;;;;10289701;28;20240;-87
2023/07/28 11:12:30;;;;;;;3.40;3.20;;;23.40;99.90;;;;;;10279812;28;20228;-87
2023/07/28 11:17:33;;;;;;;2.87;2.70;;;23.70;99.90;;;;;;10276875;28;20224;-86
2023/07/28 11:22:39;;;;;;;2.47;2.37;;;24.10;99.90;;;;;;10302779;28;20227;-89
2023/07/28 11:27:41;;;;;;;2.60;2.47;;;24.20;99.90;;;;;;10277710;28;20251;-86
2023/07/28 11:32:45;;;;;;;2.30;2.20;;;24.30;99.90;;;;;;10275022;28;20615;-86
2023/07/28 11:37:50;;;;;;;2.40;2.30;;;24.40;99.90;;;;;;10278006;28;20616;-87
2023/07/28 11:42:54;;;;;;;2.30;2.20;;;24.60;99.90;;;;;;10271208;28;20676;-87
2023/07/28 11:47:57;;;;;;;2.70;2.50;;;24.70;99.90;;;;;;10263332;28;20228;-88
2023/07/28 11:53:01;;;;;;;2.57;2.37;;;24.80;99.90;;;;;;10282005;28;20225;-88
2023/07/28 11:58:04;;;;;;;2.10;2.00;;;24.90;99.90;;;;;;10279855;28;20723;-86
2023/07/28 12:03:10;;;;;;;2.00;1.90;;;24.80;99.90;;;;;;10270178;28;20618;-87
2023/07/28 12:08:14;;;;;;;2.97;2.70;;;24.60;99.90;;;;;;10287289;28;20237;-87
2023/07/28 12:13:16;;;;;;;3.30;3.10;;;24.30;99.90;;;;;;10278400;28;20254;-86
2023/07/28 12:18:19;;;;;;;3.63;3.30;;;23.90;99.90;;;;;;10276540;28;20236;-87
2023/07/28 12:23:23;;;;;;;3.30;3.10;;;23.60;99.90;;;;;;10274393;28;20209;-86
2023/07/28 12:28:26;;;;;;;3.93;3.63;;;23.50;99.90;;;;;;10275766;28;20303;-86
2023/07/28 12:33:30;;;;;;;5.50;3.17;;;23.50;99.90;;;;;;10273710;28;20208;-86
2023/07/28 12:38:33;;;;;;;3.33;3.13;;;23.60;99.90;;;;;;10276463;28;20220;-87
2023/07/28 12:43:35;;;;;;;3.37;3.17;;;23.70;99.90;;;;;;10284402;28;20208;-86
2023/07/28 12:48:37;;;;;;;3.57;3.30;;;23.70;99.90;;;;;;10274144;28;20286;-86
2023/07/28 12:53:41;;;;;;;3.63;3.33;;;23.80;99.90;;;;;;10254053;28;20584;-87
2023/07/28 12:58:43;;;;;;;3.23;3.00;;;23.90;99.90;;;;;;10274650;28;20715;-87
2023/07/28 13:03:45;;;;;;;3.07;2.87;;;24.10;99.90;;;;;;10291395;28;20235;-86
2023/07/28 13:08:49;;;;;;;2.50;2.40;;;24.20;99.90;;;;;;10288113;28;20224;-86
2023/07/28 13:13:51;;;;;;;3.00;2.80;;;24.20;99.90;;;;;;10276493;28;20244;-88
2023/07/28 13:18:55;;;;;;;2.60;2.40;;;24.20;99.90;;;;;;10295750;28;20240;-87
2023/07/28 13:23:58;;;;;;;3.10;2.90;;;24.20;99.90;;;;;;10275973;28;20227;-86
2023/07/28 13:29:01;;;;;;;4.00;2.50;;;24.10;99.90;;;;;;10275569;28;20712;-86
2023/07/28 13:34:03;;;;;;;3.70;3.40;;;24.00;99.90;;;;;;10287427;28;20307;-86
2023/07/28 13:39:07;;;;;;;3.57;3.37;;;23.80;99.90;;;;;;10264284;28;20550;-87
2023/07/28 13:44:09;;;;;;;4.17;3.87;;;23.40;99.90;;;;;;10280672;28;21053;-87
2023/07/28 13:49:11;;;;;;;5.77;5.33;;;23.00;99.90;;;;;;10293931;28;20233;-86
2023/07/28 13:54:15;;;;;;;8.30;7.70;;;22.50;99.90;;;;;;10270196;28;20201;-87
2023/07/28 13:59:17;;;;;;;11.40;10.33;;;22.10;99.90;;;;;;10277563;28;20225;-86
2023/07/28 14:04:19;;;;;;;10.47;9.70;;;21.70;99.90;;;;;;10254632;28;20224;-86
2023/07/28 14:09:23;;;;;;;8.93;8.23;;;21.50;99.90;;;;;;10270138;28;20236;-85
2023/07/28 14:14:25;;;;;;;10.27;9.37;;;21.10;99.90;;;;;;10269260;28;20400;-85
2023/07/28 14:19:27;;;;;;;9.67;8.97;;;20.80;99.90;;;;;;10267885;28;20707;-84
2023/07/28 14:24:31;;;;;;;9.57;8.87;;;20.70;99.90;;;;;;10279241;28;20212;-85
2023/07/28 14:29:33;;;;;;;9.17;8.67;;;20.60;99.90;;;;;;10276543;28;20291;-85
2023/07/28 14:34:35;;;;;;;9.67;8.93;;;20.60;99.90;;;;;;10274615;28;20207;-86
2023/07/28 14:39:38;;;;;;;11.00;10.13;;;20.70;99.90;;;;;;10275832;28;20673;-85
2023/07/28 14:44:40;;;;;;;10.07;9.40;;;20.70;99.90;;;;;;10275623;28;20289;-85
2023/07/28 14:49:42;;;;;;;11.20;10.30;;;20.70;99.90;;;;;;10274241;28;20327;-84
2023/07/28 14:54:46;;;;;;;10.70;9.97;;;20.70;99.90;;;;;;10289826;28;20278;-84
2023/07/28 14:59:48;;;;;;;9.33;8.53;;;20.70;99.90;;;;;;10266348;28;20311;-86
2023/07/28 15:04:52;;;;;;;11.77;10.97;;;20.70;99.90;;;;;;10261739;28;20220;-85
2023/07/28 15:09:56;;;;;;;9.90;9.30;;;20.70;99.90;;;;;;10274827;28;20275;-87
2023/07/28 15:14:58;;;;;;;8.53;8.03;;;20.70;99.90;;;;;;10288344;28;20213;-87
2023/07/28 15:20:00;;;;;;;9.83;9.10;;;20.70;99.90;;;;;;10347825;23;20248;-80
2023/07/28 15:25:04;;;;;;;10.10;9.40;;;20.90;99.90;;;;;;10379696;28;20581;-80
2023/07/28 15:30:07;;;;;;;11.20;10.40;;;21.00;99.90;;;;;;10375682;28;20358;-80
2023/07/28 15:35:10;;;;;;;9.60;9.00;;;21.20;99.90;;;;;;10374271;28;20229;-80
2023/07/28 15:40:14;;;;;;;9.50;9.00;;;21.40;99.90;;;;;;10374175;28;20313;-79
2023/07/28 15:45:16;;;;;;;10.10;9.40;;;21.50;99.90;;;;;;10390272;28;20215;-79
2023/07/28 15:50:18;;;;;;;10.00;9.23;;;21.40;99.90;;;;;;10367244;28;20610;-79
2023/07/28 15:55:21;;;;;;;9.73;9.00;;;21.40;99.90;;;;;;10371860;28;20568;-79
2023/07/28 16:00:23;;;;;;;10.53;9.93;;;21.30;99.90;;;;;;10373128;28;20226;-80
2023/07/28 16:05:26;;;;;;;9.97;9.37;;;21.20;99.90;;;;;;10371988;28;20574;-80
2023/07/28 16:10:29;;;;;;;9.97;9.37;;;21.10;99.90;;;;;;10383507;28;20230;-79
2023/07/28 16:15:31;;;;;;;10.67;10.07;;;21.10;99.90;;;;;;10376688;28;20211;-79
2023/07/28 16:20:33;;;;;;;11.40;10.60;;;21.10;99.90;;;;;;10375211;28;20226;-80
2023/07/28 16:25:37;;;;;;;10.17;9.37;;;21.10;99.90;;;;;;10372722;28;20207;-79
2023/07/28 16:30:40;;;;;;;11.93;11.13;;;21.10;99.90;;;;;;10371912;28;20927;-79
2023/07/28 16:35:42;;;;;;;12.67;11.77;;;21.10;99.90;;;;;;10376369;28;20609;-79
2023/07/28 16:40:45;;;;;;;11.97;11.27;;;21.10;99.90;;;;;;10375675;28;20313;-78
2023/07/28 16:45:47;;;;;;;12.70;11.80;;;21.10;99.90;;;;;;10376427;28;20222;-78
2023/07/28 16:50:49;;;;;;;13.17;12.20;;;21.00;99.90;;;;;;10374481;28;20306;-77
2023/07/28 16:55:53;;;;;;;13.60;12.70;;;21.00;99.90;;;;;;10377249;28;20233;-78
2023/07/28 17:00:55;;;;;;;12.20;11.23;;;21.00;99.90;;;;;;10392964;28;20575;-78
2023/07/28 17:05:57;;;;;;;14.40;13.00;;;21.00;99.90;;;;;;10376329;28;20198;-81
2023/07/28 17:11:00;;;;;;;14.80;13.50;;;21.00;99.90;;;;;;10385050;28;20268;-80
2023/07/28 17:16:03;;;;;;;13.27;12.17;;;21.00;99.90;;;;;;10379877;28;20553;-81
2023/07/28 17:21:05;;;;;;;13.30;12.40;;;21.00;99.90;;;;;;10372774;28;20231;-79
2023/07/28 17:26:08;;;;;;;14.63;13.47;;;21.10;99.90;;;;;;10374663;28;20206;-81
2023/07/28 17:31:10;;;;;;;13.47;12.37;;;21.10;99.90;;;;;;10375412;28;20650;-81
2023/07/28 17:36:12;;;;;;;14.60;13.20;;;21.10;99.90;;;;;;10377981;28;20209;-81
2023/07/28 17:41:16;;;;;;;13.63;12.63;;;21.10;99.90;;;;;;10377737;28;20218;-80
2023/07/28 17:46:18;;;;;;;14.13;12.93;;;21.10;99.90;;;;;;10379579;28;20621;-81
2023/07/28 17:51:20;;;;;;;12.97;11.97;;;21.10;99.90;;;;;;10378326;28;20227;-81
2023/07/28 17:56:23;;;;;;;13.93;12.73;;;21.10;99.90;;;;;;10394549;28;20204;-80
2023/07/28 18:01:25;;;;;;;15.23;14.03;;;21.10;99.90;;;;;;10400171;28;20247;-81
2023/07/28 18:06:28;;;;;;;14.50;13.40;;;21.20;99.90;;;;;;10383165;28;20313;-80
2023/07/28 18:11:31;;;;;;;13.53;12.63;;;21.20;99.90;;;;;;10389964;28;20235;-81
2023/07/28 18:16:33;;;;;;;15.10;14.00;;;21.20;99.90;;;;;;10389069;28;20608;-81
2023/07/28 18:21:35;;;;;;;14.17;13.07;;;21.30;99.90;;;;;;10382544;28;20324;-81
2023/07/28 18:26:39;;;;;;;15.50;14.30;;;21.30;99.90;;;;;;10383609;28;20310;-81
2023/07/28 18:31:41;;;;;;;16.40;15.00;;;21.20;99.90;;;;;;10383527;28;20300;-80
2023/07/28 18:36:43;;;;;;;15.20;14.03;;;21.10;99.90;;;;;;10381521;28;20207;-80
2023/07/28 18:41:46;;;;;;;13.27;12.30;;;21.00;99.90;;;;;;10397083;28;20847;-81
2023/07/28 18:46:48;;;;;;;15.90;14.70;;;21.00;99.90;;;;;;10380092;28;20231;-81
2023/07/28 18:51:50;;;;;;;14.67;13.47;;;20.90;99.90;;;;;;10383041;28;20238;-81
2023/07/28 18:56:54;;;;;;;14.77;13.20;;;20.90;99.90;;;;;;10383301;28;20218;-81
2023/07/28 19:01:56;;;;;;;16.33;13.10;;;20.80;99.90;;;;;;10384541;28;20672;-81
2023/07/28 19:06:58;;;;;;;13.83;12.73;;;20.70;99.90;;;;;;10391350;28;20202;-81
2023/07/28 19:12:02;;;;;;;15.10;12.43;;;20.60;99.90;;;;;;10386236;28;20736;-81
2023/07/28 19:17:05;;;;;;;13.30;12.30;;;20.60;99.90;;;;;;10385435;28;20252;-81
2023/07/28 19:22:07;;;;;;;12.07;11.37;;;20.50;99.90;;;;;;10400812;28;20255;-80
2023/07/28 19:27:10;;;;;;;12.97;12.07;;;20.50;99.90;;;;;;10410712;28;20567;-80
2023/07/28 19:32:12;;;;;;;11.73;10.93;;;20.50;99.90;;;;;;10414681;28;20341;-81
2023/07/28 19:37:14;;;;;;;12.20;11.20;;;20.40;99.90;;;;;;10404586;28;20202;-81
2023/07/28 19:42:17;;;;;;;13.97;12.87;;;20.40;99.90;;;;;;10401101;28;20211;-80
2023/07/28 19:47:20;;;;;;;13.13;12.03;;;20.40;99.90;;;;;;10380968;28;20993;-80
2023/07/28 19:52:22;;;;;;;11.70;10.70;;;20.30;99.90;;;;;;10377740;28;20231;-80
2023/07/28 19:57:26;;;;;;;12.20;11.40;;;20.30;99.90;;;;;;10378999;28;20205;-80
2023/07/28 20:02:28;;;;;;;11.50;9.97;;;20.30;99.90;;;;;;10383757;28;20210;-80
2023/07/28 20:07:30;;;;;;;9.87;8.80;;;20.30;99.90;;;;;;10381196;28;20234;-79
2023/07/28 20:12:34;;;;;;;10.70;9.93;;;20.30;99.90;;;;;;10375108;28;20230;-80
2023/07/28 20:17:36;;;;;;;10.30;9.50;;;20.30;99.90;;;;;;10375122;28;20230;-79
2023/07/28 20:22:38;;;;;;;9.20;8.50;;;20.20;99.90;;;;;;10374939;28;20306;-80
2023/07/28 20:27:45;;;;;;;7.27;6.87;;;20.20;99.90;;;;;;10374526;28;20223;-79
2023/07/28 20:32:47;;;;;;;9.43;8.83;;;20.10;99.90;;;;;;10372879;28;20249;-80
2023/07/28 20:37:49;;;;;;;8.47;7.87;;;20.10;99.90;;;;;;10372134;28;20304;-79
2023/07/28 20:42:53;;;;;;;7.93;7.47;;;20.00;99.90;;;;;;10372490;28;20210;-80
2023/07/28 20:47:55;;;;;;;6.80;6.40;;;20.00;99.90;;;;;;10372018;28;20230;-80
2023/07/28 20:52:57;;;;;;;9.93;6.67;;;20.00;99.90;;;;;;10385560;28;20798;-80
2023/07/28 20:58:01;;;;;;;6.50;6.10;;;20.00;99.90;;;;;;10372664;28;20317;-79
2023/07/28 21:03:03;;;;;;;7.10;6.63;;;20.00;99.90;;;;;;10372336;28;20203;-80
2023/07/28 21:08:05;;;;;;;5.60;5.40;;;20.00;99.90;;;;;;10372104;28;21088;-79
2023/07/28 21:13:14;;;;;;;5.63;5.20;;;20.00;99.90;;;;;;10371945;28;20230;-80
2023/07/28 21:18:17;;;;;;;5.60;5.30;;;20.00;99.90;;;;;;10380510;23;20235;-85
2023/07/28 21:23:19;;;;;;;6.27;5.80;;;19.90;99.90;;;;;;10250756;28;20201;-85
2023/07/28 21:28:22;;;;;;;4.20;4.00;;;19.80;99.90;;;;;;10251015;28;20229;-85
2023/07/28 21:33:24;;;;;;;4.57;4.37;;;19.80;99.90;;;;;;10258783;28;20224;-86
2023/07/28 21:38:26;;;;;;;4.57;4.37;;;19.60;99.90;;;;;;10258251;28;20260;-86
2023/07/28 21:43:30;;;;;;;5.00;4.00;;;19.60;99.90;;;;;;10257750;28;20287;-87
2023/07/28 21:48:32;;;;;;;4.60;4.40;;;19.60;99.90;;;;;;10258975;28;20235;-86
2023/07/28 21:53:34;;;;;;;4.60;4.37;;;19.50;99.90;;;;;;10253465;28;20713;-85
2023/07/28 21:58:38;;;;;;;4.30;4.10;;;19.50;99.90;;;;;;10262597;28;20232;-86
2023/07/28 22:03:41;;;;;;;3.90;3.70;;;19.50;99.90;;;;;;10258672;28;20212;-86
2023/07/28 22:08:44;;;;;;;5.70;5.30;;;19.40;99.90;;;;;;10260123;28;20224;-86
2023/07/28 22:13:47;;;;;;;4.07;3.77;;;19.40;99.90;;;;;;10259711;28;20225;-85
2023/07/28 22:18:50;;;;;;;4.30;3.97;;;19.40;99.90;;;;;;10263325;28;20742;-88
2023/07/28 22:23:52;;;;;;;3.37;3.13;;;19.40;99.90;;;;;;10292328;28;20236;-87
2023/07/28 22:28:55;;;;;;;3.80;3.60;;;19.40;99.90;;;;;;10284835;28;20297;-87
2023/07/28 22:33:57;;;;;;;4.37;4.17;;;19.40;99.90;;;;;;10307846;28;20217;-88
2023/07/28 22:38:59;;;;;;;4.13;3.93;;;19.40;99.90;;;;;;10264222;28;20830;-86
2023/07/28 22:44:03;;;;;;;3.57;3.37;;;19.40;99.90;;;;;;10292379;28;20197;-89
2023/07/28 22:49:05;;;;;;;4.50;4.30;;;19.40;99.90;;;;;;10292505;28;20224;-89
2023/07/28 22:54:07;;;;;;;4.23;4.00;;;19.40;99.90;;;;;;10266717;28;20220;-86
2023/07/28 22:59:11;;;;;;;16.63;14.33;;;19.40;99.90;;;;;;10269619;28;20711;-86
2023/07/28 23:04:13;;;;;;;7.43;6.60;;;19.50;99.90;;;;;;10281040;28;20292;-86
2023/07/28 23:09:15;;;;;;;4.77;4.47;;;19.60;99.90;;;;;;10258018;28;20376;-85
2023/07/28 23:14:18;;;;;;;4.20;3.90;;;19.60;99.90;;;;;;10272461;28;20355;-86
2023/07/28 23:19:20;;;;;;;4.67;4.40;;;19.70;99.90;;;;;;10258762;28;20319;-88
2023/07/28 23:24:23;;;;;;;3.80;3.60;;;19.70;99.90;;;;;;10276829;28;20343;-88
2023/07/28 23:29:26;;;;;;;4.20;4.00;;;19.70;99.90;;;;;;10283981;28;20240;-88
2023/07/28 23:34:28;;;;;;;4.50;4.20;;;19.70;99.90;;;;;;10254177;28;20560;-86
2023/07/28 23:39:31;;;;;;;5.20;4.57;;;19.60;99.90;;;;;;10260180;28;20224;-86
2023/07/28 23:44:34;;;;;;;4.20;4.00;;;19.50;99.90;;;;;;10258186;28;20201;-86
2023/07/28 23:49:36;;;;;;;4.90;4.40;;;19.50;99.90;;;;;;10266885;28;20236;-86
2023/07/28 23:54:39;;;;;;;4.03;3.83;;;19.40;99.90;;;;;;10254545;28;20713;-86
2023/07/28 23:59:42;;;;;;;4.40;4.20;;;19.50;99.90;;;;;;10253710;28;20227;-86
